createdAt,value
2023-03-16T00:00:13.768Z,5.18
2023-03-16T00:02:43.498Z,5.23
2023-03-16T00:05:14.044Z,5.14
2023-03-16T00:07:42.954Z,5.18
2023-03-16T00:10:13.299Z,5.10
2023-03-16T00:12:43.514Z,5.09
2023-03-16T00:15:12.526Z,5.11
2023-03-16T00:17:42.105Z,5.11
2023-03-16T00:20:12.613Z,5.13
2023-03-16T00:22:41.858Z,5.10
2023-03-16T00:25:11.236Z,5.13
2023-03-16T00:27:39.722Z,5.13
2023-03-16T00:30:10.067Z,5.15
2023-03-16T00:32:39.361Z,5.13
2023-03-16T00:35:10.597Z,5.12
2023-03-16T00:37:39.549Z,5.08
2023-03-16T00:40:11.383Z,5.11
2023-03-16T00:42:39.511Z,5.04
2023-03-16T00:45:09.805Z,5.02
2023-03-16T00:47:37.865Z,5.03
2023-03-16T00:50:08.751Z,4.99
2023-03-16T00:52:36.799Z,4.99
2023-03-16T00:55:05.756Z,4.94
2023-03-16T00:57:34.182Z,4.94
2023-03-16T01:00:12.657Z,4.96
2023-03-16T01:02:40.838Z,4.97
2023-03-16T01:05:12.776Z,4.97
2023-03-16T01:07:41.642Z,5.02
2023-03-16T01:10:13.879Z,4.99
2023-03-16T01:12:45.162Z,4.99
2023-03-16T01:15:13.456Z,5.00
2023-03-16T01:17:41.736Z,4.98
2023-03-16T01:20:14.345Z,5.02
2023-03-16T01:22:42.933Z,4.96
2023-03-16T01:25:12.828Z,4.90
2023-03-16T01:27:43.399Z,4.88
2023-03-16T01:30:13.417Z,4.88
2023-03-16T01:32:42.162Z,4.86
2023-03-16T01:35:14.138Z,4.89
2023-03-16T01:37:42.651Z,4.86
2023-03-16T01:40:20.632Z,4.84
2023-03-16T01:42:51.055Z,4.85
2023-03-16T01:46:18.139Z,4.80
2023-03-16T01:49:08.190Z,4.70
2023-03-16T01:51:44.034Z,4.65
2023-03-16T01:54:24.077Z,4.69
2023-03-16T01:57:00.494Z,4.67
2023-03-16T01:59:34.669Z,4.63
2023-03-16T02:02:03.546Z,4.61
2023-03-16T02:04:46.338Z,4.64
2023-03-16T02:07:22.294Z,4.62
2023-03-16T02:09:54.254Z,4.67
2023-03-16T02:12:23.181Z,4.67
2023-03-16T02:14:55.157Z,4.54
2023-03-16T02:17:26.224Z,4.58
2023-03-16T02:20:16.238Z,4.60
2023-03-16T02:22:49.994Z,4.53
2023-03-16T02:25:21.703Z,4.50
2023-03-16T02:28:02.244Z,4.55
2023-03-16T02:30:33.515Z,4.57
2023-03-16T02:33:05.097Z,4.54
2023-03-16T02:35:33.399Z,4.54
2023-03-16T02:38:02.816Z,4.58
2023-03-16T02:40:38.043Z,4.57
2023-03-16T02:43:16.171Z,4.59
2023-03-16T02:45:54.660Z,4.56
2023-03-16T02:48:32.493Z,4.61
2023-03-16T02:51:00.720Z,4.62
2023-03-16T02:53:29.209Z,4.62
2023-03-16T02:55:59.112Z,4.62
2023-03-16T02:58:27.341Z,4.61
2023-03-16T03:00:57.583Z,4.55
2023-03-16T03:03:26.047Z,4.52
2023-03-16T03:05:54.289Z,4.64
2023-03-16T03:08:23.465Z,4.55
2023-03-16T03:10:51.837Z,4.49
2023-03-16T03:13:20.398Z,4.58
2023-03-16T03:15:48.471Z,4.55
2023-03-16T03:18:18.404Z,4.56
2023-03-16T03:20:46.480Z,4.55
2023-03-16T03:23:15.281Z,4.59
2023-03-16T03:25:43.758Z,4.61
2023-03-16T03:28:12.346Z,4.56
2023-03-16T03:30:40.676Z,4.60
2023-03-16T03:33:08.872Z,4.54
2023-03-16T03:35:38.385Z,4.46
2023-03-16T03:38:08.074Z,4.43
2023-03-16T03:40:36.951Z,4.50
2023-03-16T03:43:06.391Z,4.48
2023-03-16T03:45:38.815Z,4.54
2023-03-16T03:48:07.655Z,4.53
2023-03-16T03:50:35.881Z,4.54
2023-03-16T03:53:20.859Z,4.53
2023-03-16T03:56:09.094Z,4.60
2023-03-16T03:58:39.111Z,4.65
2023-03-16T04:01:07.457Z,4.67
2023-03-16T04:03:35.938Z,4.66
2023-03-16T04:06:04.214Z,4.70
2023-03-16T04:08:34.158Z,4.65
2023-03-16T04:11:02.972Z,4.69
2023-03-16T04:13:31.123Z,4.66
2023-03-16T04:15:59.682Z,4.72
2023-03-16T04:18:38.773Z,4.69
2023-03-16T04:21:13.419Z,4.67
2023-03-16T04:23:43.339Z,4.74
2023-03-16T04:26:11.487Z,4.80
2023-03-16T04:28:40.369Z,4.66
2023-03-16T04:31:11.980Z,4.75
2023-03-16T04:33:43.768Z,4.74
2023-03-16T04:36:12.063Z,4.68
2023-03-16T04:38:42.001Z,4.67
2023-03-16T04:41:12.565Z,4.72
2023-03-16T04:43:48.540Z,4.70
2023-03-16T04:46:22.588Z,4.72
2023-03-16T04:48:50.763Z,4.71
2023-03-16T04:51:18.838Z,4.79
2023-03-16T04:53:59.208Z,4.77
2023-03-16T04:56:35.943Z,4.87
2023-03-16T04:59:09.315Z,4.79
2023-03-16T05:02:00.465Z,4.71
2023-03-16T05:04:28.982Z,4.71
2023-03-16T05:06:57.040Z,4.70
2023-03-16T05:09:29.459Z,4.68
2023-03-16T05:11:59.367Z,4.65
2023-03-16T05:14:27.657Z,4.60
2023-03-16T05:17:31.024Z,4.61
2023-03-16T05:19:59.682Z,4.70
2023-03-16T05:22:28.737Z,4.66
2023-03-16T05:25:16.148Z,4.59
2023-03-16T05:27:51.341Z,4.63
2023-03-16T05:30:31.860Z,4.64
2023-03-16T05:33:04.064Z,4.61
2023-03-16T05:35:32.407Z,4.60
2023-03-16T05:38:05.364Z,4.59
2023-03-16T05:40:37.276Z,4.61
2023-03-16T05:43:26.096Z,4.54
2023-03-16T05:45:55.724Z,4.60
2023-03-16T05:48:25.793Z,4.58
2023-03-16T05:50:56.926Z,4.69
2023-03-16T05:53:29.567Z,4.60
2023-03-16T05:56:04.749Z,4.59
2023-03-16T05:58:36.847Z,4.54
2023-03-16T06:01:09.664Z,4.60
2023-03-16T06:03:38.359Z,4.59
2023-03-16T06:06:09.669Z,4.55
2023-03-16T06:08:51.547Z,4.60
2023-03-16T06:11:21.999Z,4.70
2023-03-16T06:13:51.626Z,5.06
2023-03-16T06:16:19.876Z,5.43
2023-03-16T06:18:48.045Z,5.81
2023-03-16T06:21:16.299Z,6.14
2023-03-16T06:23:45.975Z,6.19
2023-03-16T06:26:14.842Z,6.06
2023-03-16T06:28:45.781Z,5.83
2023-03-16T06:31:15.528Z,5.74
2023-03-16T06:33:46.502Z,5.67
2023-03-16T06:36:15.013Z,5.62
2023-03-16T06:38:48.367Z,5.61
2023-03-16T06:41:24.262Z,5.50
2023-03-16T06:43:55.281Z,5.41
2023-03-16T06:46:24.864Z,5.36
2023-03-16T06:48:53.691Z,5.34
2023-03-16T06:51:21.852Z,5.36
2023-03-16T06:56:20.808Z,5.40
2023-03-16T06:58:49.357Z,5.44
2023-03-16T07:01:17.703Z,5.46
2023-03-16T07:03:47.400Z,5.48
2023-03-16T07:06:26.633Z,5.54
2023-03-16T07:08:55.420Z,5.47
2023-03-16T07:11:24.413Z,5.58
2023-03-16T07:13:52.699Z,5.59
2023-03-16T07:16:22.920Z,5.64
2023-03-16T07:18:52.598Z,5.66
2023-03-16T07:21:22.270Z,5.70
2023-03-16T07:23:51.609Z,5.81
2023-03-16T07:26:25.096Z,5.87
2023-03-16T07:29:00.105Z,5.99
2023-03-16T07:31:30.476Z,5.95
2023-03-16T07:34:02.326Z,6.08
2023-03-16T07:36:38.186Z,6.14
2023-03-16T07:39:07.166Z,6.23
2023-03-16T07:41:36.372Z,6.37
2023-03-16T07:44:18.847Z,6.27
2023-03-16T07:46:50.350Z,6.31
2023-03-16T07:49:20.403Z,6.42
2023-03-16T07:51:50.331Z,6.58
2023-03-16T07:54:21.604Z,6.77
2023-03-16T07:56:50.050Z,6.87
2023-03-16T07:59:32.316Z,6.97
2023-03-16T08:02:01.673Z,7.15
2023-03-16T08:07:02.195Z,7.28
2023-03-16T08:09:43.318Z,7.37
2023-03-16T08:12:13.933Z,7.53
2023-03-16T08:14:42.131Z,7.67
2023-03-16T08:17:18.227Z,7.74
2023-03-16T08:19:49.244Z,7.99
2023-03-16T08:22:17.915Z,8.07
2023-03-16T08:24:48.982Z,8.21
2023-03-16T08:27:19.685Z,8.31
2023-03-16T08:29:53.876Z,8.45
2023-03-16T08:32:25.129Z,8.53
2023-03-16T08:34:57.143Z,8.70
2023-03-16T08:37:25.600Z,8.78
2023-03-16T08:39:55.317Z,8.80
2023-03-16T08:42:24.021Z,8.90
2023-03-16T08:44:57.376Z,9.11
2023-03-16T08:47:27.235Z,9.27
2023-03-16T08:49:57.239Z,9.41
2023-03-16T08:52:25.896Z,9.56
2023-03-16T08:55:03.058Z,9.61
2023-03-16T08:57:32.835Z,9.72
2023-03-16T09:00:01.344Z,9.77
2023-03-16T09:02:29.940Z,9.91
2023-03-16T09:04:59.328Z,9.97
2023-03-16T09:07:28.203Z,9.95
2023-03-16T09:09:57.026Z,10.05
2023-03-16T09:12:25.066Z,10.02
2023-03-16T09:14:54.257Z,10.26
2023-03-16T09:17:22.364Z,10.43
2023-03-16T09:19:52.407Z,10.53
2023-03-16T09:22:24.429Z,10.78
2023-03-16T09:24:52.542Z,10.97
2023-03-16T09:27:22.523Z,11.10
2023-03-16T09:29:52.937Z,11.14
2023-03-16T09:32:20.968Z,11.20
2023-03-16T09:34:49.191Z,11.32
2023-03-16T09:37:17.241Z,11.44
2023-03-16T09:39:47.404Z,11.53
2023-03-16T09:42:21.807Z,11.57
2023-03-16T09:45:07.637Z,11.61
2023-03-16T09:47:36.939Z,11.65
2023-03-16T09:50:10.935Z,11.65
2023-03-16T09:52:52.835Z,11.71
2023-03-16T09:55:31.749Z,11.68
2023-03-16T09:58:02.629Z,11.72
2023-03-16T10:00:37.550Z,11.65
2023-03-16T10:03:29.985Z,11.80
2023-03-16T10:06:02.154Z,11.76
2023-03-16T10:08:38.161Z,11.86
2023-03-16T10:11:27.799Z,11.86
2023-03-16T10:14:02.654Z,11.80
2023-03-16T10:16:38.502Z,11.84
2023-03-16T10:19:14.515Z,11.97
2023-03-16T10:21:44.923Z,12.09
2023-03-16T10:24:25.343Z,12.15
2023-03-16T10:27:00.543Z,12.11
2023-03-16T10:29:34.553Z,12.18
2023-03-16T10:32:13.615Z,12.24
2023-03-16T10:34:42.934Z,12.37
2023-03-16T10:37:15.331Z,12.44
2023-03-16T10:39:43.886Z,12.54
2023-03-16T10:42:20.043Z,12.69
2023-03-16T10:44:49.593Z,12.81
2023-03-16T10:47:22.818Z,12.90
2023-03-16T10:49:51.879Z,13.02
2023-03-16T10:52:25.629Z,13.03
2023-03-16T10:54:58.019Z,12.99
2023-03-16T10:57:33.562Z,13.08
2023-03-16T11:00:16.135Z,13.19
2023-03-16T11:02:44.441Z,13.23
2023-03-16T11:05:28.291Z,13.39
2023-03-16T11:08:02.367Z,13.53
2023-03-16T11:10:36.191Z,13.67
2023-03-16T11:13:15.863Z,13.80
2023-03-16T11:15:50.432Z,13.84
2023-03-16T11:18:30.923Z,13.95
2023-03-16T11:21:08.009Z,13.98
2023-03-16T11:23:40.918Z,13.98
2023-03-16T11:26:19.853Z,13.95
2023-03-16T11:28:59.240Z,14.02
2023-03-16T11:31:42.840Z,14.10
2023-03-16T11:34:17.835Z,14.18
2023-03-16T11:36:53.453Z,14.22
2023-03-16T11:39:34.554Z,14.31
2023-03-16T11:42:20.883Z,14.41
2023-03-16T11:44:56.916Z,14.45
2023-03-16T11:47:57.660Z,14.46
2023-03-16T11:50:37.114Z,14.59
2023-03-16T11:53:15.899Z,14.66
2023-03-16T11:55:53.137Z,14.67
2023-03-16T11:58:36.593Z,14.64
2023-03-16T12:01:18.219Z,14.71
2023-03-16T12:04:02.869Z,14.75
2023-03-16T12:06:54.240Z,14.66
2023-03-16T12:09:52.321Z,14.62
2023-03-16T12:12:42.657Z,14.53
2023-03-16T12:15:41.894Z,14.52
2023-03-16T12:18:19.134Z,14.56
2023-03-16T12:20:54.941Z,14.53
2023-03-16T12:23:30.397Z,14.51
2023-03-16T12:26:01.410Z,14.56
2023-03-16T12:28:33.339Z,14.62
2023-03-16T12:31:14.024Z,14.62
2023-03-16T12:34:10.989Z,14.64
2023-03-16T12:37:02.028Z,14.73
2023-03-16T12:39:47.909Z,14.72
2023-03-16T12:42:42.382Z,14.74
2023-03-16T12:45:20.590Z,14.71
2023-03-16T12:47:59.043Z,14.72
2023-03-16T12:50:28.673Z,14.67
2023-03-16T12:52:57.688Z,14.70
2023-03-16T12:55:40.907Z,14.70
2023-03-16T12:58:11.570Z,14.77
2023-03-16T13:00:42.725Z,14.82
2023-03-16T13:03:18.104Z,14.85
2023-03-16T13:05:52.985Z,14.76
2023-03-16T13:08:22.884Z,14.77
2023-03-16T13:11:10.512Z,14.78
2023-03-16T13:13:54.436Z,14.69
2023-03-16T13:16:30.064Z,14.71
2023-03-16T13:18:59.090Z,14.73
2023-03-16T13:21:40.092Z,14.68
2023-03-16T13:24:26.896Z,14.63
2023-03-16T13:27:01.532Z,14.64
2023-03-16T13:29:32.159Z,14.75
2023-03-16T13:32:03.743Z,14.78
2023-03-16T13:34:38.517Z,14.81
2023-03-16T13:37:16.624Z,14.78
2023-03-16T13:39:55.062Z,14.73
2023-03-16T13:42:25.158Z,14.57
2023-03-16T13:44:58.632Z,14.56
2023-03-16T13:47:28.574Z,14.59
2023-03-16T13:49:59.447Z,14.67
2023-03-16T13:52:31.501Z,14.72
2023-03-16T13:55:02.013Z,14.77
2023-03-16T13:57:39.879Z,14.87
2023-03-16T14:00:20.348Z,14.94
2023-03-16T14:02:54.055Z,14.97
2023-03-16T14:05:27.340Z,14.99
2023-03-16T14:08:00.473Z,14.96
2023-03-16T14:10:34.240Z,15.06
2023-03-16T14:13:10.363Z,15.05
2023-03-16T14:15:39.675Z,15.12
2023-03-16T14:18:21.215Z,15.08
2023-03-16T14:20:52.854Z,15.08
2023-03-16T14:23:25.687Z,15.10
2023-03-16T14:25:54.725Z,15.12
2023-03-16T14:28:32.092Z,15.12
2023-03-16T14:31:07.271Z,15.00
2023-03-16T14:33:37.828Z,15.02
2023-03-16T14:36:14.517Z,15.01
2023-03-16T14:38:48.238Z,14.99
2023-03-16T14:41:23.908Z,14.94
2023-03-16T14:43:56.136Z,14.98
2023-03-16T14:46:29.541Z,14.99
2023-03-16T14:49:03.611Z,15.02
2023-03-16T14:51:32.875Z,14.95
2023-03-16T14:54:02.996Z,14.92
2023-03-16T14:56:36.541Z,14.92
2023-03-16T14:59:04.663Z,14.84
2023-03-16T15:01:33.657Z,14.82
2023-03-16T15:04:02.147Z,14.85
2023-03-16T15:06:31.219Z,14.90
2023-03-16T15:09:00.020Z,14.88
2023-03-16T15:11:32.138Z,14.91
2023-03-16T15:14:14.680Z,14.87
2023-03-16T15:16:43.216Z,14.82
2023-03-16T15:19:11.943Z,14.78
2023-03-16T15:21:44.140Z,14.83
2023-03-16T15:24:13.375Z,14.79
2023-03-16T15:26:42.734Z,14.76
2023-03-16T15:29:14.842Z,14.83
2023-03-16T15:31:42.901Z,14.80
2023-03-16T15:34:11.613Z,14.78
2023-03-16T15:36:39.788Z,14.77
2023-03-16T15:39:09.073Z,14.65
2023-03-16T15:41:47.149Z,14.69
2023-03-16T15:44:17.186Z,14.74
2023-03-16T15:46:45.574Z,14.70
2023-03-16T15:49:14.187Z,14.69
2023-03-16T15:51:42.440Z,14.58
2023-03-16T15:54:13.078Z,14.53
2023-03-16T15:56:53.830Z,14.50
2023-03-16T15:59:27.128Z,14.49
2023-03-16T16:01:55.156Z,14.53
2023-03-16T16:04:25.546Z,14.52
2023-03-16T16:06:55.431Z,14.50
2023-03-16T16:09:25.453Z,14.45
2023-03-16T16:11:53.531Z,14.42
2023-03-16T16:14:26.484Z,14.43
2023-03-16T16:16:55.050Z,14.44
2023-03-16T16:19:23.188Z,14.40
2023-03-16T16:21:51.803Z,14.36
2023-03-16T16:24:20.006Z,14.37
2023-03-16T16:26:55.638Z,14.32
2023-03-16T16:29:30.025Z,14.33
2023-03-16T16:31:58.260Z,14.34
2023-03-16T16:34:27.882Z,14.35
2023-03-16T16:36:57.598Z,14.29
2023-03-16T16:39:26.181Z,14.26
2023-03-16T16:41:56.534Z,14.24
2023-03-16T16:44:33.904Z,14.24
2023-03-16T16:47:19.823Z,14.22
2023-03-16T16:49:49.549Z,14.19
2023-03-16T16:52:18.691Z,14.15
2023-03-16T16:54:46.848Z,14.14
2023-03-16T16:57:19.227Z,14.11
2023-03-16T16:59:50.454Z,14.05
2023-03-16T17:02:32.831Z,14.06
2023-03-16T17:05:01.120Z,13.97
2023-03-16T17:07:29.293Z,13.94
2023-03-16T17:09:57.345Z,13.96
2023-03-16T17:12:29.612Z,13.94
2023-03-16T17:14:59.641Z,13.92
2023-03-16T17:17:56.420Z,13.86
2023-03-16T17:20:25.886Z,13.86
2023-03-16T17:22:54.654Z,13.84
2023-03-16T17:25:23.609Z,13.81
2023-03-16T17:27:54.246Z,13.78
2023-03-16T17:30:30.346Z,13.73
2023-03-16T17:33:04.825Z,13.74
2023-03-16T17:35:35.931Z,13.72
2023-03-16T17:38:04.010Z,13.68
2023-03-16T17:40:33.572Z,13.61
2023-03-16T17:45:56.581Z,13.49
2023-03-16T17:48:25.708Z,13.46
2023-03-16T17:50:55.887Z,13.45
2023-03-16T17:53:24.020Z,13.41
2023-03-16T17:55:57.097Z,13.41
2023-03-16T17:58:28.892Z,13.39
2023-03-16T18:00:59.607Z,13.35
2023-03-16T18:03:30.553Z,13.35
2023-03-16T18:05:59.377Z,13.30
2023-03-16T18:08:33.218Z,13.30
2023-03-16T18:11:05.579Z,13.28
2023-03-16T18:13:36.894Z,13.26
2023-03-16T18:16:08.465Z,13.22
2023-03-16T18:18:41.539Z,13.19
2023-03-16T18:21:18.598Z,13.19
2023-03-16T18:23:47.116Z,13.18
2023-03-16T18:26:15.460Z,13.18
2023-03-16T18:28:43.788Z,13.21
2023-03-16T18:31:22.083Z,13.21
2023-03-16T18:33:52.833Z,13.16
2023-03-16T18:36:27.535Z,13.17
2023-03-16T18:38:57.485Z,13.13
2023-03-16T18:41:28.350Z,13.14
2023-03-16T18:43:59.024Z,13.10
2023-03-16T18:46:31.488Z,13.07
2023-03-16T18:49:02.378Z,13.04
2023-03-16T18:51:32.611Z,13.03
2023-03-16T18:54:00.629Z,13.01
2023-03-16T18:56:30.161Z,13.02
2023-03-16T18:58:58.448Z,12.98
2023-03-16T19:01:31.731Z,13.06
2023-03-16T19:04:03.015Z,13.06
2023-03-16T19:06:35.416Z,12.99
2023-03-16T19:09:08.794Z,13.00
2023-03-16T19:11:44.142Z,12.96
2023-03-16T19:14:17.459Z,12.97
2023-03-16T19:16:47.551Z,12.98
2023-03-16T19:19:17.147Z,12.95
2023-03-16T19:21:45.308Z,12.95
2023-03-16T19:24:23.430Z,12.89
2023-03-16T19:26:51.948Z,12.78
2023-03-16T19:29:30.262Z,12.82
2023-03-16T19:32:00.484Z,12.82
2023-03-16T19:34:29.063Z,12.80
2023-03-16T19:36:57.263Z,12.75
2023-03-16T19:39:25.949Z,12.72
2023-03-16T19:41:58.828Z,12.57
2023-03-16T19:44:29.135Z,12.61
2023-03-16T19:47:00.872Z,12.62
2023-03-16T19:49:29.267Z,12.65
2023-03-16T19:51:57.721Z,12.61
2023-03-16T19:54:27.919Z,12.55
2023-03-16T19:57:12.833Z,12.54
2023-03-16T19:59:42.276Z,12.52
2023-03-16T20:02:27.553Z,12.53
2023-03-16T20:04:56.202Z,12.53
2023-03-16T20:07:24.310Z,12.53
2023-03-16T20:09:52.689Z,12.51
2023-03-16T20:12:24.815Z,12.48
2023-03-16T20:14:55.445Z,12.45
2023-03-16T20:17:28.212Z,12.48
2023-03-16T20:19:57.961Z,12.44
2023-03-16T20:22:28.564Z,12.42
2023-03-16T20:24:57.915Z,12.38
2023-03-16T20:27:28.236Z,12.33
2023-03-16T20:29:56.392Z,12.32
2023-03-16T20:32:32.010Z,12.27
2023-03-16T20:35:00.805Z,12.20
2023-03-16T20:37:31.696Z,12.21
2023-03-16T20:40:00.232Z,12.25
2023-03-16T20:42:32.422Z,12.19
2023-03-16T20:45:01.448Z,12.15
2023-03-16T20:47:31.487Z,12.09
2023-03-16T20:50:00.165Z,12.09
2023-03-16T20:52:30.968Z,12.06
2023-03-16T20:54:59.645Z,12.06
2023-03-16T20:57:29.988Z,11.99
2023-03-16T20:59:59.876Z,11.95
2023-03-16T21:02:33.949Z,11.92
2023-03-16T21:05:04.856Z,11.88
2023-03-16T21:07:33.254Z,11.92
2023-03-16T21:10:01.706Z,11.95
2023-03-16T21:12:33.682Z,11.91
2023-03-16T21:15:03.750Z,11.90
2023-03-16T21:17:38.057Z,11.88
2023-03-16T21:20:17.334Z,11.80
2023-03-16T21:22:46.710Z,11.76
2023-03-16T21:25:24.559Z,11.73
2023-03-16T21:27:56.733Z,11.66
2023-03-16T21:30:30.806Z,11.66
2023-03-16T21:33:01.927Z,11.70
2023-03-16T21:35:35.791Z,11.56
2023-03-16T21:38:14.339Z,11.58
2023-03-16T21:40:42.924Z,11.59
2023-03-16T21:43:12.071Z,11.62
2023-03-16T21:45:41.096Z,11.63
2023-03-16T21:48:16.704Z,11.59
2023-03-16T21:50:45.428Z,11.57
2023-03-16T21:53:23.131Z,11.51
2023-03-16T21:55:52.288Z,11.50
2023-03-16T21:58:21.254Z,11.53
2023-03-16T22:00:50.540Z,11.52
2023-03-16T22:03:32.990Z,11.46
2023-03-16T22:06:06.928Z,11.40
2023-03-16T22:08:36.330Z,11.40
2023-03-16T22:11:04.626Z,11.32
2023-03-16T22:13:33.465Z,11.30
2023-03-16T22:16:02.201Z,11.21
2023-03-16T22:18:34.726Z,11.18
2023-03-16T22:21:19.835Z,11.17
2023-03-16T22:23:48.287Z,11.15
2023-03-16T22:26:19.914Z,11.17
2023-03-16T22:28:48.250Z,11.08
2023-03-16T22:31:20.327Z,11.09
2023-03-16T22:33:51.083Z,11.10
2023-03-16T22:36:22.755Z,11.03
2023-03-16T22:38:57.267Z,10.97
2023-03-16T22:41:25.628Z,10.91
2023-03-16T22:43:54.930Z,10.89
2023-03-16T22:46:26.048Z,10.90
2023-03-16T22:49:01.825Z,10.85
2023-03-16T22:51:36.307Z,10.84
2023-03-16T22:54:09.004Z,10.77
2023-03-16T22:56:37.899Z,10.75
2023-03-16T22:59:08.894Z,10.75
2023-03-16T23:01:41.281Z,10.78
2023-03-16T23:04:15.322Z,10.87
2023-03-16T23:06:43.774Z,10.87
2023-03-16T23:09:15.391Z,10.83
2023-03-16T23:11:46.387Z,10.85
2023-03-16T23:14:16.893Z,10.82
2023-03-16T23:16:47.193Z,10.84
2023-03-16T23:19:25.627Z,10.83
2023-03-16T23:21:56.532Z,10.84
2023-03-16T23:24:25.309Z,10.89
2023-03-16T23:26:55.100Z,10.87
2023-03-16T23:29:24.358Z,10.86
2023-03-16T23:31:53.549Z,10.81
2023-03-16T23:34:26.167Z,10.67
2023-03-16T23:36:54.212Z,10.64
2023-03-16T23:39:22.365Z,10.70
2023-03-16T23:41:51.323Z,10.75
2023-03-16T23:44:24.201Z,10.74
2023-03-16T23:46:53.504Z,10.71
2023-03-16T23:49:26.267Z,10.73
2023-03-16T23:51:56.731Z,10.77
2023-03-16T23:54:28.632Z,10.72
2023-03-16T23:56:57.042Z,10.77
2023-03-16T23:59:27.295Z,10.75
